Time;durP1;ratioP1;P1;durP2;ratioP2;P2;SDS_P1;SDS_P2;PMS_P1;PMS_P2;Temp;Humidity;BMP_temperature;BMP_pressure;BME280_temperature;BME280_humidity;BME280_pressure;Samples;Min_cycle;Max_cycle;Signal;HPM_P1;HPM_P2
2022/10/31 00:01:13;;;;;;;24.30;17.77;;;18.00;83.10;;;20.71;58.76;101851.84;4917267;29;20218;-62
2022/10/31 00:03:40;;;;;;;27.13;18.17;;;17.90;83.00;;;20.69;58.54;101846.72;4916848;29;20357;-62
2022/10/31 00:06:07;;;;;;;30.70;19.73;;;17.90;83.20;;;20.68;58.64;101853.09;4916322;29;20262;-62
2022/10/31 00:08:35;;;;;;;25.07;17.60;;;17.90;83.40;;;20.66;59.13;101854.34;4917343;29;20671;-61
2022/10/31 00:11:02;;;;;;;25.73;17.60;;;17.90;83.60;;;20.64;58.58;101861.75;4917302;29;20218;-62
2022/10/31 00:13:30;;;;;;;22.30;18.57;;;17.80;83.50;;;20.60;58.53;101853.34;4917877;29;20210;-62
2022/10/31 00:15:57;;;;;;;25.97;17.43;;;17.80;83.60;;;20.59;58.69;101872.28;4916360;29;20190;-62
2022/10/31 00:18:24;;;;;;;26.63;19.33;;;17.80;83.80;;;20.55;59.09;101879.09;4917576;29;20191;-62
2022/10/31 00:20:59;;;;;;;26.73;17.33;;;17.80;83.80;;;20.50;59.14;101878.91;4916738;29;20230;-62
2022/10/31 00:23:26;;;;;;;23.63;17.07;;;17.80;84.10;;;20.49;59.50;101872.72;4917486;29;20238;-61
2022/10/31 00:26:00;;;;;;;19.47;16.50;;;17.80;84.10;;;20.46;59.60;101883.03;4916884;29;20202;-62
2022/10/31 00:28:27;;;;;;;25.70;18.70;;;17.70;84.10;;;20.45;59.08;101889.41;4917291;29;20678;-62
2022/10/31 00:30:54;;;;;;;24.03;18.60;;;17.70;84.20;;;20.44;59.65;101885.13;4917265;29;20274;-62
2022/10/31 00:33:21;;;;;;;24.30;17.43;;;17.70;84.40;;;20.43;59.47;101888.81;4917703;29;20202;-61
2022/10/31 00:35:50;;;;;;;24.57;17.63;;;17.70;84.60;;;20.41;59.29;101890.88;4918743;29;20242;-61
2022/10/31 00:38:17;;;;;;;28.13;18.60;;;17.60;84.70;;;20.40;59.57;101899.91;4917098;29;20198;-63
2022/10/31 00:40:44;;;;;;;22.47;18.17;;;17.60;84.70;;;20.38;59.43;101896.63;4917517;29;20257;-63
2022/10/31 00:43:12;;;;;;;24.90;17.77;;;17.60;84.80;;;20.37;59.60;101901.19;4918313;29;20198;-62
2022/10/31 00:45:41;;;;;;;21.83;18.67;;;17.60;84.90;;;20.38;60.17;101902.81;4916879;29;20278;-62
2022/10/31 00:48:08;;;;;;;24.40;19.93;;;17.60;85.10;;;20.36;60.23;101902.22;4915938;29;20266;-62
2022/10/31 00:50:35;;;;;;;22.83;16.87;;;17.60;85.10;;;20.36;59.80;101910.22;4916429;29;20345;-62
2022/10/31 00:53:02;;;;;;;20.40;16.77;;;17.60;85.10;;;20.35;59.61;101908.56;4916345;29;20693;-62
2022/10/31 00:55:29;;;;;;;25.27;18.10;;;17.60;85.10;;;20.34;60.15;101914.16;4916850;29;20244;-61
2022/10/31 00:57:56;;;;;;;20.60;17.90;;;17.60;85.90;;;20.32;60.23;101918.88;4916805;29;20301;-61
2022/10/31 01:00:26;;;;;;;23.40;17.40;;;17.60;85.10;;;20.30;59.97;101923.63;4916134;29;20286;-62
2022/10/31 01:02:53;;;;;;;20.93;16.97;;;17.60;85.10;;;20.29;59.74;101922.81;4916436;29;20349;-62
2022/10/31 01:05:20;;;;;;;22.40;17.57;;;17.60;85.20;;;20.27;60.25;101926.72;4916440;29;20686;-62
2022/10/31 01:07:47;;;;;;;24.87;17.90;;;17.50;85.10;;;20.24;60.12;101926.09;4916766;29;20671;-59
2022/10/31 01:10:14;;;;;;;25.03;17.77;;;17.50;85.20;;;20.24;59.83;101928.78;4920249;29;20195;-62
2022/10/31 01:12:46;;;;;;;20.53;17.73;;;17.50;85.30;;;20.22;60.32;101930.84;4919739;29;20687;-63
2022/10/31 01:15:18;;;;;;;18.57;16.00;;;17.50;85.50;;;20.21;60.38;101934.50;4920549;29;20190;-62
2022/10/31 01:17:46;;;;;;;26.03;20.17;;;17.50;85.70;;;20.24;60.34;101939.47;4920089;29;20213;-62
2022/10/31 01:20:15;;;;;;;23.67;18.43;;;17.50;85.90;;;20.24;60.43;101936.81;4920298;29;20723;-63
2022/10/31 01:22:42;;;;;;;24.13;18.20;;;17.50;85.90;;;20.23;60.47;101942.34;4919747;29;20214;-62
2022/10/31 01:25:10;;;;;;;20.80;17.03;;;17.40;85.80;;;20.20;60.23;101948.94;4920142;29;20219;-61
2022/10/31 01:27:37;;;;;;;22.10;16.70;;;17.40;85.80;;;20.19;60.02;101947.28;4919855;29;20218;-63
2022/10/31 01:30:06;;;;;;;29.27;20.07;;;17.40;85.70;;;20.17;60.32;101948.50;4920072;29;20233;-61
2022/10/31 01:32:33;;;;;;;21.87;16.00;;;17.40;85.60;;;20.14;60.74;101939.03;4919733;29;20218;-61
2022/10/31 01:35:02;;;;;;;25.80;18.07;;;17.40;85.70;;;20.13;60.35;101942.72;4919475;29;20250;-62
2022/10/31 01:37:30;;;;;;;22.50;18.10;;;17.40;85.70;;;20.11;60.23;101941.31;4920041;29;20245;-62
2022/10/31 01:39:57;;;;;;;23.57;17.77;;;17.30;85.50;;;20.07;60.61;101940.06;4920135;29;20245;-62
2022/10/31 01:42:24;;;;;;;26.00;18.47;;;17.30;85.40;;;20.02;60.71;101935.34;4919603;29;20230;-62
2022/10/31 01:44:59;;;;;;;25.93;18.70;;;17.30;85.40;;;19.97;60.20;101935.16;4919995;29;20246;-61
2022/10/31 01:47:46;;;;;;;23.63;17.37;;;17.30;85.70;;;19.90;60.54;101937.00;4920065;29;20198;-59
2022/10/31 01:50:28;;;;;;;24.40;16.30;;;17.30;85.80;;;19.89;60.48;101940.72;4919730;29;20202;-59
2022/10/31 01:52:56;;;;;;;23.83;16.40;;;17.20;85.60;;;19.89;60.88;101943.38;4919991;29;20198;-62
2022/10/31 01:55:29;;;;;;;19.73;15.27;;;17.20;85.60;;;19.87;60.94;101948.09;4920130;29;20190;-61
2022/10/31 01:58:05;;;;;;;21.77;15.93;;;17.20;85.70;;;19.86;60.85;101951.81;4901093;29;20244;-62
2022/10/31 02:00:32;;;;;;;24.87;18.07;;;17.10;85.70;;;19.86;60.80;101935.78;4909191;29;20285;-62
2022/10/31 02:02:59;;;;;;;25.80;19.13;;;17.10;85.80;;;19.84;60.53;101943.19;4919791;29;20238;-62
2022/10/31 02:05:30;;;;;;;24.37;17.07;;;17.10;86.00;;;19.84;61.01;101937.84;4919560;29;20214;-61
2022/10/31 02:08:04;;;;;;;23.57;17.63;;;17.10;86.20;;;19.82;60.89;101945.25;4919270;29;20257;-63
2022/10/31 02:10:34;;;;;;;25.33;17.00;;;17.10;86.20;;;19.84;60.95;101948.53;4900626;29;20195;-63
2022/10/31 02:13:04;;;;;;;23.07;17.10;;;17.10;86.20;;;19.85;60.70;101954.69;4919626;29;20278;-63
2022/10/31 02:15:32;;;;;;;20.07;15.93;;;17.10;86.40;;;19.86;60.73;101951.81;4919297;29;20190;-63
2022/10/31 02:18:00;;;;;;;22.17;16.83;;;17.10;86.50;;;19.90;60.95;101953.03;4919508;29;20247;-62
2022/10/31 02:20:36;;;;;;;22.27;17.07;;;17.10;86.60;;;19.91;61.10;101954.69;4917846;29;20277;-64
2022/10/31 02:23:58;;;;;;;30.30;20.83;;;17.20;86.40;;;19.85;60.75;101958.16;4919223;29;20198;-62
2022/10/31 02:27:12;;;;;;;25.33;17.90;;;17.20;86.30;;;19.88;61.03;101952.44;4918803;29;20226;-63
2022/10/31 02:30:10;;;;;;;26.30;16.97;;;17.20;86.30;;;19.90;61.37;101958.38;4917458;29;20258;-62
2022/10/31 02:32:52;;;;;;;21.47;17.20;;;17.30;86.50;;;19.99;60.89;101957.13;4918846;29;20247;-61
2022/10/31 02:35:39;;;;;;;23.73;17.40;;;17.30;86.30;;;20.02;60.61;101955.91;4919128;29;20525;-63
2022/10/31 02:38:24;;;;;;;19.30;16.33;;;17.30;86.00;;;20.03;60.81;101950.38;4919020;29;20218;-62
2022/10/31 02:41:03;;;;;;;27.13;19.40;;;17.30;85.90;;;20.00;60.31;101958.81;4918888;29;20222;-60
2022/10/31 02:43:43;;;;;;;26.10;18.87;;;17.40;85.50;;;19.95;60.93;101961.25;4918884;29;20198;-59
2022/10/31 02:46:20;;;;;;;25.10;18.30;;;17.40;85.20;;;19.91;60.53;101960.03;4918850;29;20285;-62
2022/10/31 02:48:52;;;;;;;26.07;17.30;;;17.30;85.10;;;19.91;61.05;101970.72;4919005;29;20602;-62
2022/10/31 02:51:20;;;;;;;23.77;17.67;;;17.30;85.50;;;19.93;60.57;101963.31;4919031;29;20218;-61
2022/10/31 02:53:47;;;;;;;20.90;15.63;;;17.30;85.70;;;19.92;60.97;101961.66;4918668;29;20206;-60
2022/10/31 02:56:17;;;;;;;24.07;17.97;;;17.30;85.50;;;19.95;61.31;101955.09;4918788;29;20190;-61
2022/10/31 02:58:52;;;;;;;25.23;20.27;;;17.30;86.10;;;19.97;61.22;101955.69;4918873;29;20199;-61
2022/10/31 03:02:17;;;;;;;21.27;16.47;;;17.30;85.90;;;19.91;61.29;101960.03;4918230;29;20210;-62
2022/10/31 03:05:14;;;;;;;20.37;16.23;;;17.30;86.10;;;19.94;61.29;101956.97;4909380;29;20294;-63
2022/10/31 03:07:55;;;;;;;28.90;19.37;;;17.40;85.80;;;19.94;60.27;101964.16;4918833;29;20726;-63
2022/10/31 03:10:39;;;;;;;25.80;19.37;;;17.40;85.20;;;19.82;60.89;101973.81;4917981;29;20202;-60
2022/10/31 03:13:17;;;;;;;31.27;20.10;;;17.30;84.80;;;19.72;60.78;101970.72;4900000;29;20251;-63
2022/10/31 03:15:50;;;;;;;24.60;18.07;;;17.30;84.70;;;19.64;61.07;101969.06;4900071;29;20555;-61
2022/10/31 03:18:27;;;;;;;25.13;19.43;;;17.20;85.70;;;19.58;61.06;101978.72;4900565;29;20203;-62
2022/10/31 03:21:05;;;;;;;21.87;17.27;;;17.10;84.80;;;19.55;60.97;101980.97;4899086;29;20219;-60
2022/10/31 03:23:35;;;;;;;27.23;21.30;;;17.10;85.10;;;19.51;61.41;101982.41;4899473;29;20258;-62
2022/10/31 03:26:07;;;;;;;27.87;20.87;;;17.00;85.30;;;19.43;61.41;101982.56;4912587;29;20218;-63
2022/10/31 03:28:43;;;;;;;29.77;20.90;;;16.90;85.30;;;19.35;61.69;101991.56;4919408;29;20273;-62
2022/10/31 03:31:16;;;;;;;25.13;17.43;;;16.90;85.50;;;19.32;61.64;101991.16;4917312;29;20217;-61
2022/10/31 03:33:45;;;;;;;27.57;19.27;;;16.80;85.80;;;19.29;61.43;101987.03;4917855;29;20199;-66
2022/10/31 03:36:17;;;;;;;26.63;20.40;;;16.80;86.00;;;19.24;61.86;101989.47;4918990;29;20191;-61
2022/10/31 03:38:47;;;;;;;25.50;20.07;;;16.70;86.10;;;19.19;61.74;101991.09;4919567;29;20199;-62
2022/10/31 03:41:30;;;;;;;27.23;20.33;;;16.70;86.20;;;19.09;62.03;101996.81;4918410;29;20750;-63
2022/10/31 03:44:02;;;;;;;24.20;19.73;;;16.60;86.30;;;19.07;62.11;101992.69;4917576;29;20258;-61
2022/10/31 03:46:29;;;;;;;25.23;20.20;;;16.60;86.20;;;19.03;62.11;102004.78;4917705;29;20238;-61
2022/10/31 03:48:58;;;;;;;26.93;22.60;;;16.50;86.40;;;18.98;62.74;102009.91;4918083;29;20198;-62
2022/10/31 03:51:39;;;;;;;27.63;19.07;;;16.50;86.70;;;18.90;62.64;102009.03;4917287;29;20215;-63
2022/10/31 03:54:16;;;;;;;30.40;21.77;;;16.40;86.70;;;18.87;62.45;102009.44;4917714;29;20238;-62
2022/10/31 03:56:51;;;;;;;24.50;20.03;;;16.40;87.10;;;18.80;62.60;102013.91;4917550;29;20194;-61
2022/10/31 03:59:26;;;;;;;23.30;17.87;;;16.30;87.00;;;18.79;62.71;102001.59;4917579;29;20202;-61
2022/10/31 04:02:03;;;;;;;24.07;19.23;;;16.30;87.10;;;18.79;62.89;102001.59;4917215;29;20277;-62
2022/10/31 04:04:30;;;;;;;29.53;21.53;;;16.30;87.40;;;18.81;62.91;102009.41;4917558;29;20261;-60
2022/10/31 04:07:03;;;;;;;24.13;20.53;;;16.20;87.40;;;18.82;62.99;102006.56;4917465;29;20226;-62
2022/10/31 04:09:36;;;;;;;22.07;18.17;;;16.20;88.00;;;18.82;62.91;102009.22;4917923;29;20262;-61
2022/10/31 04:12:08;;;;;;;27.83;20.70;;;16.20;87.90;;;18.84;62.74;102015.19;4917343;29;20227;-62
2022/10/31 04:14:39;;;;;;;30.40;20.27;;;16.20;87.80;;;18.83;62.66;102012.69;4917350;29;20731;-59
2022/10/31 04:17:13;;;;;;;29.07;20.97;;;16.20;87.50;;;18.79;62.51;102017.63;4917321;29;20199;-62
2022/10/31 04:19:40;;;;;;;24.90;19.83;;;16.20;87.50;;;18.79;62.96;102022.13;4917519;29;20341;-62
2022/10/31 04:22:09;;;;;;;25.93;20.53;;;16.20;87.60;;;18.75;63.18;102028.88;4913538;29;20219;-61
2022/10/31 04:24:39;;;;;;;21.73;19.53;;;16.20;87.60;;;18.66;62.96;102022.84;4898350;29;20198;-62
2022/10/31 04:27:07;;;;;;;29.77;19.63;;;16.10;87.50;;;18.61;62.96;102030.63;4910639;29;20302;-60
2022/10/31 04:29:34;;;;;;;21.57;18.87;;;16.10;87.50;;;18.55;63.06;102025.25;4917376;29;20638;-61
2022/10/31 04:32:01;;;;;;;21.17;16.53;;;16.00;87.50;;;18.52;63.08;102015.78;4916804;29;20573;-61
2022/10/31 04:34:28;;;;;;;21.10;18.10;;;16.00;87.60;;;18.55;63.42;102020.75;4917865;29;20624;-62
2022/10/31 04:36:54;;;;;;;22.80;18.93;;;15.90;88.20;;;18.60;63.50;102029.00;4917256;29;20202;-62
2022/10/31 04:39:23;;;;;;;23.33;20.10;;;16.00;88.60;;;18.61;63.11;102024.47;4917419;29;20202;-62
2022/10/31 04:41:52;;;;;;;24.97;19.77;;;16.00;88.00;;;18.58;62.86;102025.69;4916499;29;20254;-62
2022/10/31 04:44:20;;;;;;;33.47;21.50;;;15.90;87.70;;;18.52;63.05;102036.31;4919547;29;20206;-61
2022/10/31 04:46:47;;;;;;;35.30;20.17;;;15.90;87.60;;;18.41;63.31;102031.47;4921131;29;20218;-60
2022/10/31 04:49:14;;;;;;;31.43;20.67;;;15.90;87.60;;;18.30;63.55;102021.34;4920995;29;20194;-62
2022/10/31 04:51:40;;;;;;;33.63;18.60;;;15.80;87.80;;;18.22;63.72;102027.66;4920646;29;20222;-61
2022/10/31 04:54:08;;;;;;;46.60;20.67;;;15.70;87.90;;;18.13;63.94;102026.13;4921054;29;20226;-60
2022/10/31 04:56:36;;;;;;;41.70;20.93;;;15.70;88.30;;;18.04;64.10;102032.63;4920545;29;20678;-63
2022/10/31 04:59:03;;;;;;;35.77;20.27;;;15.60;88.60;;;17.96;64.61;102035.41;4921716;29;20254;-62
2022/10/31 05:01:30;;;;;;;31.93;18.83;;;15.50;88.80;;;17.91;64.74;102021.84;4921519;29;20215;-61
2022/10/31 05:03:57;;;;;;;34.10;19.97;;;15.40;89.10;;;17.87;64.99;102025.91;4922186;29;20285;-61
2022/10/31 05:06:24;;;;;;;47.63;18.93;;;15.40;89.50;;;17.83;64.99;102019.31;4922175;29;20214;-63
2022/10/31 05:08:51;;;;;;;41.93;20.50;;;15.40;89.50;;;17.80;65.19;102028.50;4921154;29;20266;-60
2022/10/31 05:11:18;;;;;;;41.03;21.47;;;15.30;89.70;;;17.78;65.17;102022.50;4919911;29;20627;-61
2022/10/31 05:13:46;;;;;;;33.57;19.70;;;15.30;90.00;;;17.75;65.26;102016.75;4920772;29;20190;-62
2022/10/31 05:16:13;;;;;;;23.00;18.73;;;15.20;90.00;;;17.72;65.36;102025.97;4920784;29;20191;-62
2022/10/31 05:18:40;;;;;;;25.23;18.40;;;15.20;90.10;;;17.72;65.52;102012.63;4920412;29;20206;-62
2022/10/31 05:21:07;;;;;;;36.80;20.47;;;15.20;90.10;;;17.74;65.52;102015.09;4920129;29;20274;-64
2022/10/31 05:23:34;;;;;;;27.07;18.03;;;15.20;90.20;;;17.77;65.44;102009.41;4919562;29;20600;-60
2022/10/31 05:26:01;;;;;;;25.63;18.43;;;15.20;90.40;;;17.82;65.35;102001.66;4920146;29;21080;-62
2022/10/31 05:28:28;;;;;;;21.40;17.20;;;15.20;90.40;;;17.89;65.14;102013.22;4920169;29;20191;-63
2022/10/31 05:30:56;;;;;;;22.63;18.40;;;15.20;90.30;;;17.93;65.43;102006.47;4919908;29;20222;-60
2022/10/31 05:33:23;;;;;;;26.87;20.83;;;15.20;90.60;;;18.00;65.00;102012.69;4920092;29;20569;-62
2022/10/31 05:35:50;;;;;;;22.60;18.67;;;15.30;90.50;;;18.02;65.05;102007.97;4920340;29;20195;-62
2022/10/31 05:38:17;;;;;;;25.13;19.63;;;15.30;90.40;;;18.07;65.13;102010.91;4918877;29;20202;-60
2022/10/31 05:40:44;;;;;;;25.20;19.63;;;15.40;90.50;;;18.12;65.08;102005.81;4919819;29;20203;-61
2022/10/31 05:43:11;;;;;;;24.03;18.80;;;15.40;90.50;;;18.17;64.71;102006.06;4920378;29;20248;-62
2022/10/31 05:45:38;;;;;;;22.50;18.30;;;15.40;90.30;;;18.22;64.61;102004.47;4919734;29;20226;-62
2022/10/31 05:48:08;;;;;;;23.10;17.33;;;15.50;90.30;;;18.24;64.39;102018.44;4920576;29;20194;-62
2022/10/31 05:50:35;;;;;;;26.10;19.13;;;15.50;90.10;;;18.26;64.18;102020.91;4920061;29;20246;-62
2022/10/31 05:53:04;;;;;;;22.10;17.80;;;15.60;90.00;;;18.28;64.11;102010.88;4919955;29;20266;-62
2022/10/31 05:55:32;;;;;;;23.37;16.73;;;15.60;90.00;;;18.30;64.13;102016.84;4919829;29;20194;-61
2022/10/31 05:57:59;;;;;;;21.10;17.27;;;15.60;89.70;;;18.32;63.79;102014.81;4920114;29;20332;-62
2022/10/31 06:00:27;;;;;;;18.37;16.00;;;15.60;89.40;;;18.32;63.84;102017.47;4919556;29;20201;-62
2022/10/31 06:02:59;;;;;;;21.23;17.23;;;15.60;89.30;;;18.31;63.36;102018.47;4919446;29;20211;-61
2022/10/31 06:05:28;;;;;;;20.00;17.53;;;15.60;88.80;;;18.27;62.93;102017.22;4919551;29;20207;-61
2022/10/31 06:07:55;;;;;;;23.00;17.40;;;15.60;88.30;;;18.21;62.92;102017.97;4919644;29;20198;-61
2022/10/31 06:10:23;;;;;;;18.57;16.67;;;15.60;87.90;;;18.10;62.63;102029.19;4919251;29;20202;-62
2022/10/31 06:12:50;;;;;;;18.70;15.53;;;15.50;87.30;;;18.02;63.03;102026.63;4919643;29;20278;-61
2022/10/31 06:15:17;;;;;;;18.43;14.60;;;15.50;87.60;;;17.96;62.87;102038.91;4919583;29;20203;-60
2022/10/31 06:17:59;;;;;;;22.60;15.03;;;15.40;87.40;;;17.85;62.90;102031.41;4919596;29;20191;-63
2022/10/31 06:20:28;;;;;;;23.90;16.20;;;15.30;87.30;;;17.79;63.11;102040.16;4919265;29;20202;-63
2022/10/31 06:22:55;;;;;;;22.50;14.87;;;15.30;87.40;;;17.71;63.05;102037.59;4919396;29;20223;-61
2022/10/31 06:25:22;;;;;;;16.97;13.77;;;15.20;87.40;;;17.64;63.26;102033.25;4919274;29;20242;-61
2022/10/31 06:27:49;;;;;;;19.87;14.67;;;15.10;87.50;;;17.58;63.41;102038.31;4919613;29;20609;-60
2022/10/31 06:30:16;;;;;;;13.67;12.20;;;15.10;87.80;;;17.58;63.77;102037.47;4919575;29;20202;-62
2022/10/31 06:32:43;;;;;;;14.60;13.10;;;15.00;88.20;;;17.61;63.68;102046.94;4918659;29;20227;-60
2022/10/31 06:35:11;;;;;;;15.13;13.60;;;15.00;88.40;;;17.64;64.02;102051.91;4919272;29;20711;-62
2022/10/31 06:37:39;;;;;;;14.20;12.70;;;15.00;89.00;;;17.67;63.64;102047.00;4919560;29;20198;-61
2022/10/31 06:40:07;;;;;;;16.17;14.63;;;15.00;88.70;;;17.67;63.47;102044.34;4919307;29;20198;-59
2022/10/31 06:42:34;;;;;;;13.33;12.13;;;15.00;88.50;;;17.70;63.51;102051.13;4917053;29;20226;-60
2022/10/31 06:45:02;;;;;;;15.40;13.80;;;15.00;88.50;;;17.72;63.71;102052.59;4919009;29;20194;-62
2022/10/31 06:47:29;;;;;;;15.53;13.60;;;15.00;88.90;;;17.79;63.77;102050.81;4918961;29;20258;-62
2022/10/31 06:49:56;;;;;;;15.90;14.37;;;15.00;89.20;;;17.89;63.80;102050.50;4919106;29;20559;-62
2022/10/31 06:52:23;;;;;;;13.83;12.53;;;15.10;89.50;;;18.00;63.64;102055.31;4918743;29;20637;-61
2022/10/31 06:54:51;;;;;;;14.50;13.10;;;15.20;89.50;;;18.08;63.29;102055.19;4919019;29;20194;-59
2022/10/31 06:57:18;;;;;;;12.97;11.77;;;15.20;89.90;;;18.17;62.94;102048.72;4918869;29;20278;-62
2022/10/31 06:59:45;;;;;;;14.60;13.30;;;15.30;89.00;;;18.24;62.83;102060.25;4918605;29;20550;-62
2022/10/31 07:02:12;;;;;;;13.27;11.97;;;15.40;88.50;;;18.31;62.31;102055.81;4918055;29;20218;-62
2022/10/31 07:04:39;;;;;;;12.93;11.73;;;15.40;88.80;;;18.36;62.07;102056.06;4918460;29;20564;-62
2022/10/31 07:07:06;;;;;;;12.67;11.37;;;15.50;88.00;;;18.43;62.11;102064.94;4917987;29;20222;-61
2022/10/31 07:09:33;;;;;;;15.80;13.93;;;15.50;88.00;;;18.48;61.85;102062.53;4918395;29;20194;-61
2022/10/31 07:12:02;;;;;;;13.97;12.57;;;15.60;87.90;;;18.52;61.69;102074.47;4918186;29;20222;-60
2022/10/31 07:14:29;;;;;;;15.43;13.87;;;15.60;87.70;;;18.54;61.56;102071.63;4924392;29;20301;-62
2022/10/31 07:16:56;;;;;;;18.70;15.63;;;15.70;87.50;;;18.52;61.56;102084.31;4919976;29;20194;-61
2022/10/31 07:19:23;;;;;;;18.87;15.43;;;15.70;87.00;;;18.47;61.36;102082.22;4918365;29;20735;-61
2022/10/31 07:21:50;;;;;;;17.67;15.80;;;15.70;86.80;;;18.39;61.51;102086.84;4917966;29;20214;-61
2022/10/31 07:24:16;;;;;;;17.53;15.67;;;15.70;86.60;;;18.29;61.91;102087.16;4918127;29;20226;-61
2022/10/31 07:26:45;;;;;;;18.53;14.47;;;15.60;86.60;;;18.20;61.99;102080.31;4917591;29;20270;-61
2022/10/31 07:29:14;;;;;;;15.03;13.63;;;15.60;86.60;;;18.20;62.47;102075.00;4918009;29;20199;-63
2022/10/31 07:31:41;;;;;;;17.80;15.13;;;15.60;87.30;;;18.27;62.91;102075.88;4917776;29;20632;-62
2022/10/31 07:34:08;;;;;;;19.10;15.63;;;15.60;88.00;;;18.38;62.76;102083.34;4918112;29;20202;-60
2022/10/31 07:36:35;;;;;;;16.50;14.70;;;15.60;88.30;;;18.51;62.89;102075.50;4918284;29;20195;-62
2022/10/31 07:39:02;;;;;;;18.90;15.87;;;15.70;88.50;;;18.63;62.40;102076.63;4918068;29;20675;-62
2022/10/31 07:41:29;;;;;;;15.43;13.93;;;15.80;88.00;;;18.72;61.79;102074.63;4909737;29;20665;-60
2022/10/31 07:43:56;;;;;;;18.60;15.00;;;15.80;87.50;;;18.78;61.58;102069.31;4899345;29;20203;-61
2022/10/31 07:46:24;;;;;;;17.33;15.40;;;15.90;87.40;;;18.87;61.91;102078.00;4898951;29;20227;-61
2022/10/31 07:48:51;;;;;;;15.07;13.47;;;16.00;87.40;;;18.93;61.34;102077.22;4898879;29;20251;-61
2022/10/31 07:51:18;;;;;;;16.83;15.03;;;16.10;87.10;;;19.01;61.04;102068.22;4900585;29;20282;-61
2022/10/31 07:53:45;;;;;;;16.37;14.27;;;16.10;86.40;;;19.05;60.67;102072.97;4902197;29;20266;-60
2022/10/31 07:56:12;;;;;;;17.10;14.63;;;16.20;86.00;;;19.10;60.71;102072.38;4907528;29;20730;-62
2022/10/31 07:58:39;;;;;;;16.80;15.07;;;16.20;85.80;;;19.16;60.25;102079.59;4918489;29;20258;-62
2022/10/31 08:01:06;;;;;;;18.27;16.47;;;16.30;85.80;;;19.22;60.07;102081.47;4917628;29;20258;-60
2022/10/31 08:03:34;;;;;;;15.37;13.87;;;16.40;85.70;;;19.30;59.75;102087.47;4915901;29;20213;-61
2022/10/31 08:06:01;;;;;;;16.17;14.47;;;16.40;85.40;;;19.38;59.95;102083.84;4918226;29;20227;-61
2022/10/31 08:08:29;;;;;;;15.90;14.20;;;16.50;85.30;;;19.39;59.04;102077.47;4923095;29;20207;-62
2022/10/31 08:11:00;;;;;;;22.17;15.63;;;16.50;84.70;;;19.35;58.65;102082.34;4913414;29;20231;-62
2022/10/31 08:13:27;;;;;;;13.60;12.30;;;16.50;83.50;;;19.27;58.78;102077.19;4899704;29;20203;-62
2022/10/31 08:15:55;;;;;;;19.23;14.83;;;16.50;83.60;;;19.20;58.85;102078.19;4899793;29;20203;-62
2022/10/31 08:18:23;;;;;;;15.33;11.60;;;16.50;83.20;;;19.13;58.72;102070.16;4898931;29;20203;-61
2022/10/31 08:20:53;;;;;;;12.93;11.50;;;16.40;83.20;;;19.13;59.39;102080.00;4898194;29;20219;-59
2022/10/31 08:23:20;;;;;;;13.70;12.30;;;16.40;83.90;;;19.17;58.95;102078.56;4898976;29;20219;-61
2022/10/31 08:25:47;;;;;;;15.63;14.13;;;16.30;84.20;;;19.24;59.72;102074.09;4900900;29;20195;-60
2022/10/31 08:28:15;;;;;;;13.60;11.73;;;16.40;84.70;;;19.33;59.39;102072.88;4917726;29;20239;-61
2022/10/31 08:30:42;;;;;;;17.10;13.53;;;16.40;84.60;;;19.38;58.91;102071.31;4917323;29;20202;-61
2022/10/31 08:33:12;;;;;;;22.80;14.13;;;16.40;84.40;;;19.42;58.71;102072.56;4917514;29;20217;-60
2022/10/31 08:35:40;;;;;;;13.07;11.73;;;16.50;83.70;;;19.40;58.53;102073.78;4905674;29;20184;-62
2022/10/31 08:38:10;;;;;;;14.00;12.23;;;16.50;83.40;;;19.39;58.22;102077.47;4898542;29;20195;-62
2022/10/31 08:40:38;;;;;;;12.53;11.23;;;16.50;83.40;;;19.41;58.68;102070.09;4899935;29;20191;-62
2022/10/31 08:43:14;;;;;;;13.27;12.00;;;16.50;83.50;;;19.44;57.98;102080.38;4918854;29;20202;-62
2022/10/31 08:45:43;;;;;;;12.93;11.73;;;16.50;83.40;;;19.45;58.28;102071.31;4919002;29;20681;-62
2022/10/31 08:48:12;;;;;;;12.83;11.63;;;16.50;83.20;;;19.46;58.40;102073.81;4920424;29;20218;-62
2022/10/31 08:50:41;;;;;;;13.33;11.93;;;16.50;83.30;;;19.53;58.32;102073.84;4919729;29;20257;-62
2022/10/31 08:53:12;;;;;;;11.63;10.53;;;16.50;83.60;;;19.57;58.13;102069.72;4920915;29;20616;-62
2022/10/31 08:55:41;;;;;;;11.27;10.27;;;16.60;83.60;;;19.65;57.67;102072.22;4920488;29;20198;-61
2022/10/31 08:58:13;;;;;;;11.83;10.70;;;16.60;83.30;;;19.68;57.50;102079.84;4920359;29;20246;-65
2022/10/31 09:00:40;;;;;;;14.00;12.43;;;16.60;82.70;;;19.70;56.90;102074.31;4919023;29;20234;-64
2022/10/31 09:03:14;;;;;;;13.87;12.47;;;16.60;82.20;;;19.66;56.78;102073.88;4918407;29;20261;-61
2022/10/31 09:05:41;;;;;;;13.57;12.17;;;16.70;82.00;;;19.61;56.70;102071.00;4917850;29;20195;-62
2022/10/31 09:08:10;;;;;;;13.40;12.10;;;16.60;81.60;;;19.55;57.12;102066.44;4917682;29;20297;-62
2022/10/31 09:10:44;;;;;;;11.43;10.33;;;16.60;81.50;;;19.58;57.70;102074.06;4914698;29;20183;-61
2022/10/31 09:13:14;;;;;;;12.70;11.03;;;16.60;82.10;;;19.67;57.55;102067.50;4898427;29;20215;-62
2022/10/31 09:15:44;;;;;;;12.23;10.93;;;16.70;82.60;;;19.88;57.80;102067.34;4897755;29;20206;-62
2022/10/31 09:18:13;;;;;;;14.33;12.47;;;16.80;83.00;;;20.06;57.49;102070.25;4898443;29;20230;-60
2022/10/31 09:20:42;;;;;;;14.83;13.43;;;16.90;83.00;;;20.25;56.73;102074.81;4897622;29;20199;-62
2022/10/31 09:23:13;;;;;;;13.43;12.13;;;17.00;82.80;;;20.42;56.75;102069.09;4898554;29;20199;-62
2022/10/31 09:25:42;;;;;;;13.63;12.23;;;17.10;82.50;;;20.57;56.58;102061.63;4899291;29;20247;-63
2022/10/31 09:28:19;;;;;;;14.27;12.83;;;17.20;82.20;;;20.69;56.21;102066.16;4917348;29;20270;-62
2022/10/31 09:30:48;;;;;;;15.30;13.70;;;17.40;82.00;;;20.76;55.51;102071.50;4919217;29;20766;-62
2022/10/31 09:33:16;;;;;;;17.83;16.03;;;17.50;81.40;;;20.75;55.71;102059.16;4917610;29;20266;-62
2022/10/31 09:35:43;;;;;;;14.47;13.10;;;17.60;80.80;;;20.71;55.80;102056.06;4901183;29;20199;-63
2022/10/31 09:38:15;;;;;;;15.87;13.63;;;17.60;80.80;;;20.66;55.49;102060.38;4901709;29;20660;-62
2022/10/31 09:40:45;;;;;;;14.27;12.93;;;17.60;80.40;;;20.61;56.04;102060.22;4900726;29;20641;-62
2022/10/31 09:43:24;;;;;;;14.70;13.37;;;17.60;80.40;;;20.59;55.53;102059.56;4901276;29;20199;-62
2022/10/31 09:46:04;;;;;;;16.43;14.73;;;17.60;80.60;;;20.70;55.62;102056.28;4901361;29;20254;-65
2022/10/31 09:48:47;;;;;;;15.23;13.77;;;17.60;80.70;;;20.83;55.55;102051.72;4901228;29;20282;-62
2022/10/31 09:51:20;;;;;;;16.03;14.10;;;17.70;80.90;;;21.04;55.31;102055.97;4901030;29;20262;-61
2022/10/31 09:53:54;;;;;;;16.33;14.73;;;17.80;80.80;;;21.21;55.06;102059.88;4917129;29;20206;-61
2022/10/31 09:56:24;;;;;;;17.63;14.83;;;17.90;80.70;;;21.33;55.14;102052.81;4920193;29;20271;-61
2022/10/31 09:58:58;;;;;;;16.00;14.30;;;18.00;80.60;;;21.52;54.53;102051.91;4919749;29;20195;-62
2022/10/31 10:01:42;;;;;;;17.13;15.50;;;18.10;80.50;;;21.83;53.81;102052.94;4918770;29;20699;-61
2022/10/31 10:04:39;;;;;;;16.90;15.00;;;18.30;80.50;;;22.27;53.21;102050.19;4919859;29;20551;-61
2022/10/31 10:07:21;;;;;;;17.63;14.37;;;18.50;80.40;;;22.73;52.64;102045.22;4919620;29;20564;-61
2022/10/31 10:09:50;;;;;;;16.50;14.73;;;18.80;80.00;;;22.99;51.44;102037.94;4919957;29;20199;-62
2022/10/31 10:12:33;;;;;;;16.10;14.37;;;19.10;78.90;;;23.05;51.03;102037.03;4904681;29;20299;-62
2022/10/31 10:15:26;;;;;;;17.07;15.27;;;19.30;78.00;;;23.04;50.75;102041.59;4900859;29;20552;-63